Time;durP1;ratioP1;P1;durP2;ratioP2;P2;SDS_P1;SDS_P2;PMS_P1;PMS_P2;Temp;Humidity;BMP_temperature;BMP_pressure;BME280_temperature;BME280_humidity;BME280_pressure;Samples;Min_cycle;Max_cycle;Signal;HPM_P1;HPM_P2
2024/01/12 00:01:06;;;;;;;0.50;0.50;;;1.40;99.90;;;;;;4384173;32;20079;-63
2024/01/12 00:03:31;;;;;;;0.60;0.60;;;1.40;99.90;;;;;;4381656;32;20067;-63
2024/01/12 00:05:57;;;;;;;0.40;0.40;;;1.40;99.90;;;;;;4381139;32;20111;-64
2024/01/12 00:08:22;;;;;;;0.40;0.40;;;1.40;99.90;;;;;;4384250;32;20078;-64
2024/01/12 00:10:48;;;;;;;0.50;0.50;;;1.40;99.90;;;;;;4383754;32;20078;-63
2024/01/12 00:13:13;;;;;;;0.85;0.85;;;1.40;99.90;;;;;;4384990;32;20062;-64
2024/01/12 00:15:39;;;;;;;0.65;0.65;;;1.40;99.90;;;;;;4379349;32;20458;-61
2024/01/12 00:18:04;;;;;;;0.55;0.55;;;1.40;99.90;;;;;;4374122;32;20067;-62
2024/01/12 00:20:29;;;;;;;0.82;0.82;;;1.40;99.90;;;;;;4370592;32;20075;-61
2024/01/12 00:22:57;;;;;;;0.40;0.40;;;1.40;99.90;;;;;;4373610;32;20075;-61
2024/01/12 00:25:23;;;;;;;0.77;0.68;;;1.40;99.90;;;;;;4373386;32;20082;-61
2024/01/12 00:27:48;;;;;;;0.50;0.50;;;1.40;99.90;;;;;;4373632;32;20054;-61
2024/01/12 00:30:14;;;;;;;0.50;0.50;;;1.50;99.90;;;;;;4372482;32;20133;-61
2024/01/12 00:32:39;;;;;;;1.02;0.93;;;1.50;99.90;;;;;;4359578;32;20444;-63
2024/01/12 00:35:05;;;;;;;0.32;0.32;;;1.50;99.90;;;;;;4375446;32;20082;-62
2024/01/12 00:37:30;;;;;;;0.77;0.77;;;1.40;99.90;;;;;;4369850;32;20086;-63
2024/01/12 00:39:56;;;;;;;0.47;0.47;;;1.40;99.90;;;;;;4373371;32;20066;-61
2024/01/12 00:42:22;;;;;;;0.47;0.47;;;1.40;99.90;;;;;;4375264;32;20058;-61
2024/01/12 00:44:48;;;;;;;0.90;0.90;;;1.40;99.90;;;;;;4372904;32;20098;-63
2024/01/12 00:47:13;;;;;;;0.75;0.75;;;1.30;99.90;;;;;;4376309;32;20055;-63
2024/01/12 00:49:39;;;;;;;0.50;0.50;;;1.30;99.90;;;;;;4372336;32;20619;-62
2024/01/12 00:52:04;;;;;;;6.45;0.88;;;1.30;99.90;;;;;;4374036;32;20067;-62
2024/01/12 00:54:30;;;;;;;0.40;0.40;;;1.30;99.90;;;;;;4375517;32;21135;-63
2024/01/12 00:56:55;;;;;;;0.70;0.70;;;1.40;99.90;;;;;;4372864;32;20158;-61
2024/01/12 00:59:22;;;;;;;0.65;0.65;;;1.40;99.90;;;;;;4369661;32;20140;-62
2024/01/12 01:01:48;;;;;;;0.80;0.68;;;1.40;99.90;;;;;;4373890;32;20101;-63
2024/01/12 01:04:13;;;;;;;0.40;0.40;;;1.50;99.90;;;;;;4374917;32;20062;-63
2024/01/12 01:06:39;;;;;;;0.50;0.50;;;1.50;99.90;;;;;;4372342;32;20118;-61
2024/01/12 01:09:04;;;;;;;1.00;0.88;;;1.50;99.90;;;;;;4372196;32;20125;-62
2024/01/12 01:11:30;;;;;;;0.90;0.90;;;1.50;99.90;;;;;;4373072;32;20074;-61
2024/01/12 01:13:55;;;;;;;0.40;0.40;;;1.40;99.90;;;;;;4370808;32;20070;-62
2024/01/12 01:16:21;;;;;;;0.65;0.60;;;1.40;99.90;;;;;;4373116;32;20078;-62
2024/01/12 01:18:47;;;;;;;0.75;0.75;;;1.40;99.90;;;;;;4373081;32;20530;-61
2024/01/12 01:21:12;;;;;;;0.50;0.50;;;1.50;99.90;;;;;;4371135;32;20095;-63
2024/01/12 01:23:37;;;;;;;0.40;0.40;;;1.50;99.90;;;;;;4359592;32;20577;-63
2024/01/12 01:26:03;;;;;;;0.40;0.40;;;1.40;99.90;;;;;;4375146;32;20538;-65
2024/01/12 01:28:28;;;;;;;0.30;0.30;;;1.40;99.90;;;;;;4371936;32;20062;-64
2024/01/12 01:30:54;;;;;;;0.40;0.40;;;1.40;99.90;;;;;;4370300;32;20506;-65
2024/01/12 01:33:19;;;;;;;0.55;0.55;;;1.40;99.90;;;;;;4371255;32;20066;-65
2024/01/12 01:35:45;;;;;;;0.50;0.50;;;1.50;99.90;;;;;;4374957;32;20085;-65
2024/01/12 01:38:10;;;;;;;0.70;0.70;;;1.40;99.90;;;;;;4373708;32;20079;-64
2024/01/12 01:40:36;;;;;;;0.40;0.40;;;1.40;99.90;;;;;;4375849;32;20070;-65
2024/01/12 01:43:09;;;;;;;1.48;1.10;;;1.40;99.90;;;;;;4372064;32;20557;-64
2024/01/12 01:45:36;;;;;;;0.40;0.40;;;1.30;99.90;;;;;;4372137;32;20472;-64
2024/01/12 01:48:04;;;;;;;0.40;0.40;;;1.30;99.90;;;;;;4372212;32;20183;-64
2024/01/12 01:50:29;;;;;;;0.70;0.70;;;1.30;99.90;;;;;;4370242;32;20119;-63
2024/01/12 01:52:56;;;;;;;0.40;0.40;;;1.40;99.90;;;;;;4373657;32;20604;-65
2024/01/12 01:55:22;;;;;;;0.32;0.32;;;1.40;99.90;;;;;;4359387;32;20444;-64
2024/01/12 01:57:48;;;;;;;0.65;0.65;;;1.50;99.90;;;;;;4376011;32;20078;-64
2024/01/12 02:00:15;;;;;;;3.12;0.75;;;1.50;99.90;;;;;;4372842;32;20074;-66
2024/01/12 02:02:41;;;;;;;0.40;0.40;;;1.50;99.90;;;;;;4360877;32;20090;-65
2024/01/12 02:05:08;;;;;;;0.40;0.40;;;1.40;99.90;;;;;;4374544;32;20543;-65
2024/01/12 02:07:34;;;;;;;0.60;0.60;;;1.50;99.90;;;;;;4373515;32;20066;-64
2024/01/12 02:10:00;;;;;;;3.08;0.90;;;1.50;99.90;;;;;;4374880;32;20066;-65
2024/01/12 02:12:26;;;;;;;4.03;0.95;;;1.40;99.90;;;;;;4373589;32;20083;-64
2024/01/12 02:14:52;;;;;;;1.08;1.05;;;1.40;99.90;;;;;;4376096;32;20078;-64
2024/01/12 02:17:17;;;;;;;0.82;0.82;;;1.40;99.90;;;;;;4376591;32;20091;-64
2024/01/12 02:19:43;;;;;;;0.77;0.77;;;1.40;99.90;;;;;;4374783;32;20549;-62
2024/01/12 02:22:08;;;;;;;0.32;0.32;;;1.40;99.90;;;;;;4375417;32;20074;-63
2024/01/12 02:24:33;;;;;;;0.40;0.40;;;1.40;99.90;;;;;;4376395;32;20090;-63
2024/01/12 02:26:59;;;;;;;0.30;0.30;;;1.40;99.90;;;;;;4374249;32;20475;-64
2024/01/12 02:29:24;;;;;;;0.40;0.40;;;1.50;99.90;;;;;;4375002;32;20083;-64
2024/01/12 02:31:50;;;;;;;0.50;0.50;;;1.50;99.90;;;;;;4372970;32;20137;-63
2024/01/12 02:34:16;;;;;;;0.37;0.37;;;1.50;99.90;;;;;;4373292;32;20073;-63
2024/01/12 02:36:41;;;;;;;0.68;0.68;;;1.40;99.90;;;;;;4372262;32;20078;-65
2024/01/12 02:39:07;;;;;;;0.93;0.93;;;1.40;99.90;;;;;;4373296;32;20178;-64
2024/01/12 02:41:32;;;;;;;0.88;0.82;;;1.50;99.90;;;;;;4374305;32;20079;-63
2024/01/12 02:43:58;;;;;;;0.70;0.70;;;1.50;99.90;;;;;;4373711;32;20537;-65
2024/01/12 02:46:24;;;;;;;0.50;0.50;;;1.50;99.90;;;;;;4373353;32;20067;-65
2024/01/12 02:48:50;;;;;;;2.50;1.12;;;1.50;99.90;;;;;;4376784;32;20075;-64
2024/01/12 02:51:15;;;;;;;2.05;1.12;;;1.50;99.90;;;;;;4376156;32;20082;-65
2024/01/12 02:53:41;;;;;;;1.48;1.05;;;1.50;99.90;;;;;;4376482;32;20411;-63
2024/01/12 02:56:06;;;;;;;0.30;0.30;;;1.50;99.90;;;;;;4374115;32;21183;-65
2024/01/12 02:58:32;;;;;;;0.50;0.50;;;1.50;99.90;;;;;;4375739;32;20074;-65
2024/01/12 03:00:57;;;;;;;0.30;0.30;;;1.50;99.90;;;;;;4373423;32;20396;-65
2024/01/12 03:03:22;;;;;;;0.75;0.75;;;1.50;99.90;;;;;;4374729;32;20074;-65
2024/01/12 03:05:49;;;;;;;0.85;0.85;;;1.50;99.90;;;;;;4374037;32;20090;-64
2024/01/12 03:08:15;;;;;;;0.50;0.50;;;1.50;99.90;;;;;;4375839;32;20086;-65
2024/01/12 03:10:40;;;;;;;0.43;0.43;;;1.50;99.90;;;;;;4373642;32;21157;-63
2024/01/12 03:13:06;;;;;;;0.40;0.40;;;1.50;99.90;;;;;;4373051;32;20063;-61
2024/01/12 03:15:32;;;;;;;0.50;0.50;;;1.50;99.90;;;;;;4373017;32;20077;-63
2024/01/12 03:17:57;;;;;;;0.50;0.50;;;1.50;99.90;;;;;;4370776;32;20079;-63
2024/01/12 03:20:23;;;;;;;0.43;0.43;;;1.50;99.90;;;;;;4377542;32;20078;-63
2024/01/12 03:22:48;;;;;;;4.10;1.42;;;1.50;99.90;;;;;;4372535;32;20066;-64
2024/01/12 03:25:14;;;;;;;0.68;0.68;;;1.50;99.90;;;;;;4371506;32;20079;-63
2024/01/12 03:27:39;;;;;;;0.60;0.60;;;1.50;99.90;;;;;;4375338;32;20074;-64
2024/01/12 03:30:05;;;;;;;0.75;0.75;;;1.50;99.90;;;;;;4377910;32;20121;-62
2024/01/12 03:32:33;;;;;;;0.65;0.65;;;1.50;99.90;;;;;;4373698;32;20078;-62
2024/01/12 03:34:59;;;;;;;0.30;0.30;;;1.50;99.90;;;;;;4375970;32;20070;-65
2024/01/12 03:37:24;;;;;;;0.73;0.73;;;1.40;99.90;;;;;;4376560;32;20070;-63
2024/01/12 03:39:50;;;;;;;0.43;0.43;;;1.40;99.90;;;;;;4372973;32;20120;-64
2024/01/12 03:42:15;;;;;;;0.60;0.60;;;1.40;99.90;;;;;;4372943;32;20777;-63
2024/01/12 03:44:41;;;;;;;0.45;0.45;;;1.50;99.90;;;;;;4373143;32;20063;-63
2024/01/12 03:47:06;;;;;;;0.50;0.50;;;1.50;99.90;;;;;;4372143;32;20479;-63
2024/01/12 03:49:31;;;;;;;0.40;0.40;;;1.50;99.90;;;;;;4373682;32;20090;-63
2024/01/12 03:51:57;;;;;;;0.68;0.68;;;1.40;99.90;;;;;;4373088;32;20070;-63
2024/01/12 03:54:23;;;;;;;0.52;0.52;;;1.50;99.90;;;;;;4358945;32;20067;-63
2024/01/12 03:56:49;;;;;;;1.02;1.02;;;1.50;99.90;;;;;;4361868;32;20525;-65
2024/01/12 03:59:15;;;;;;;0.50;0.50;;;1.60;99.90;;;;;;4372958;32;20062;-62
2024/01/12 04:04:07;;;;;;;1.42;0.90;;;1.50;99.90;;;;;;4373383;32;20063;-60
2024/01/12 04:06:32;;;;;;;0.62;0.62;;;1.50;99.90;;;;;;4372280;32;20086;-64
2024/01/12 04:08:58;;;;;;;0.40;0.40;;;1.40;99.90;;;;;;4369932;32;21823;-63
2024/01/12 04:11:24;;;;;;;0.40;0.40;;;1.40;99.90;;;;;;4374283;32;20074;-64
2024/01/12 04:13:49;;;;;;;0.45;0.45;;;1.30;99.90;;;;;;4371891;32;20059;-64
2024/01/12 04:16:15;;;;;;;0.73;0.73;;;1.40;99.90;;;;;;4372929;32;20070;-64
2024/01/12 04:18:41;;;;;;;1.00;0.93;;;1.40;99.90;;;;;;4374102;32;20154;-64
2024/01/12 04:21:06;;;;;;;0.68;0.68;;;1.40;99.90;;;;;;4372314;32;20074;-64
2024/01/12 04:23:32;;;;;;;1.45;1.25;;;1.40;99.90;;;;;;4366243;32;20161;-65
2024/01/12 04:25:57;;;;;;;0.90;0.88;;;1.40;99.90;;;;;;4373367;32;20096;-65
2024/01/12 04:28:23;;;;;;;0.50;0.50;;;1.40;99.90;;;;;;4372500;32;20089;-65
2024/01/12 04:30:48;;;;;;;0.47;0.47;;;1.40;99.90;;;;;;4374110;32;20086;-62
2024/01/12 04:33:14;;;;;;;0.40;0.40;;;1.40;99.90;;;;;;4372003;32;20420;-64
2024/01/12 04:35:40;;;;;;;0.75;0.75;;;1.40;99.90;;;;;;4374731;32;20063;-64
2024/01/12 04:38:06;;;;;;;0.77;0.77;;;1.30;99.90;;;;;;4371026;32;20129;-64
2024/01/12 04:40:31;;;;;;;1.37;1.23;;;1.40;99.90;;;;;;4359321;32;20066;-64
2024/01/12 04:42:56;;;;;;;0.88;0.73;;;1.40;99.90;;;;;;4375295;32;20059;-65
2024/01/12 04:45:22;;;;;;;0.40;0.40;;;1.40;99.90;;;;;;4373617;32;20066;-64
2024/01/12 04:47:47;;;;;;;0.50;0.50;;;1.40;99.90;;;;;;4375128;32;20135;-63
2024/01/12 04:50:13;;;;;;;0.52;0.52;;;1.40;99.90;;;;;;4372325;32;20074;-63
2024/01/12 04:52:39;;;;;;;0.40;0.40;;;1.40;99.90;;;;;;4374659;32;20078;-62
2024/01/12 04:55:04;;;;;;;0.40;0.40;;;1.40;99.90;;;;;;4372272;32;20072;-63
2024/01/12 04:57:30;;;;;;;0.55;0.55;;;1.40;99.90;;;;;;4374203;32;20078;-63
2024/01/12 04:59:55;;;;;;;0.47;0.47;;;1.40;99.90;;;;;;4370899;32;20078;-64
2024/01/12 05:02:20;;;;;;;0.40;0.40;;;1.50;99.90;;;;;;4371771;32;20079;-65
2024/01/12 05:04:46;;;;;;;1.23;0.93;;;1.50;99.90;;;;;;4372583;32;20223;-65
2024/01/12 05:07:11;;;;;;;0.50;0.50;;;1.40;99.90;;;;;;4376007;32;20133;-64
2024/01/12 05:09:37;;;;;;;0.47;0.47;;;1.40;99.90;;;;;;4373688;32;20077;-64
2024/01/12 05:12:06;;;;;;;0.50;0.50;;;1.30;99.90;;;;;;4374312;32;20522;-65
2024/01/12 05:14:32;;;;;;;1.35;0.82;;;1.30;99.90;;;;;;4372439;32;20072;-65
2024/01/12 05:16:57;;;;;;;0.43;0.43;;;1.40;99.90;;;;;;4373366;32;20102;-63
2024/01/12 05:19:23;;;;;;;0.50;0.50;;;1.40;99.90;;;;;;4374554;32;20066;-64
2024/01/12 05:21:49;;;;;;;0.40;0.40;;;1.40;99.90;;;;;;4368100;32;20067;-65
2024/01/12 05:24:15;;;;;;;0.55;0.55;;;1.30;99.90;;;;;;4373173;32;20086;-64
2024/01/12 05:26:41;;;;;;;0.50;0.50;;;1.30;99.90;;;;;;4372646;32;20891;-66
2024/01/12 05:29:08;;;;;;;0.52;0.52;;;1.30;99.90;;;;;;4371423;32;20063;-63
2024/01/12 05:31:34;;;;;;;0.50;0.50;;;1.30;99.90;;;;;;4371218;32;20133;-65
2024/01/12 05:33:59;;;;;;;0.50;0.50;;;1.30;99.90;;;;;;4372637;32;20063;-63
2024/01/12 05:36:25;;;;;;;0.40;0.40;;;1.40;99.90;;;;;;4372961;32;20312;-65
2024/01/12 05:38:50;;;;;;;0.60;0.60;;;1.40;99.90;;;;;;4377031;32;20130;-64
2024/01/12 05:41:16;;;;;;;0.73;0.50;;;1.30;99.90;;;;;;4373383;32;20095;-64
2024/01/12 05:43:41;;;;;;;0.73;0.73;;;1.40;99.90;;;;;;4375446;32;20444;-65
2024/01/12 05:46:07;;;;;;;0.85;0.85;;;1.30;99.90;;;;;;4371644;32;20087;-63
2024/01/12 05:48:33;;;;;;;2.30;0.73;;;1.30;99.90;;;;;;4375259;32;20062;-64
2024/01/12 05:51:00;;;;;;;0.55;0.55;;;1.30;99.90;;;;;;4374355;32;20511;-64
2024/01/12 05:53:25;;;;;;;1.80;1.52;;;1.30;99.90;;;;;;4374731;32;20502;-65
2024/01/12 05:55:52;;;;;;;0.40;0.40;;;1.30;99.90;;;;;;4357831;32;20069;-65
2024/01/12 05:58:19;;;;;;;1.30;0.80;;;1.20;99.90;;;;;;4374543;32;20391;-64
2024/01/12 06:00:45;;;;;;;0.73;0.73;;;1.20;99.90;;;;;;4362639;32;20617;-64
2024/01/12 06:03:11;;;;;;;3.95;0.93;;;1.30;99.90;;;;;;4377103;32;20114;-64
2024/01/12 06:05:37;;;;;;;0.52;0.52;;;1.20;99.90;;;;;;4370612;32;20071;-63
2024/01/12 06:08:04;;;;;;;0.50;0.50;;;1.20;99.90;;;;;;4368887;32;20125;-64
2024/01/12 06:10:30;;;;;;;0.52;0.52;;;1.10;99.90;;;;;;4372887;32;20534;-64
2024/01/12 06:12:55;;;;;;;0.60;0.60;;;1.20;99.90;;;;;;4368228;32;20083;-63
2024/01/12 06:15:21;;;;;;;0.40;0.40;;;1.20;99.90;;;;;;4364228;32;20180;-64
2024/01/12 06:17:47;;;;;;;0.80;0.80;;;1.20;99.90;;;;;;4372122;32;20407;-65
2024/01/12 06:20:12;;;;;;;0.30;0.30;;;1.20;99.90;;;;;;4369436;32;20077;-63
2024/01/12 06:22:38;;;;;;;1.90;0.90;;;1.20;99.90;;;;;;4365825;32;20067;-63
2024/01/12 06:25:04;;;;;;;0.30;0.30;;;1.00;99.90;;;;;;4373302;32;20455;-65
2024/01/12 06:27:30;;;;;;;5.68;1.95;;;1.00;99.90;;;;;;4356012;32;20117;-62
2024/01/12 06:29:55;;;;;;;0.40;0.40;;;1.00;99.90;;;;;;4374026;32;20471;-64
2024/01/12 06:32:21;;;;;;;0.70;0.70;;;1.00;99.90;;;;;;4372821;32;20106;-63
2024/01/12 06:34:47;;;;;;;0.50;0.50;;;1.00;99.90;;;;;;4371778;32;20137;-64
2024/01/12 06:37:12;;;;;;;0.40;0.40;;;1.00;99.90;;;;;;4369004;32;20082;-65
2024/01/12 06:39:39;;;;;;;0.88;0.88;;;1.00;99.90;;;;;;4368945;32;20079;-65
2024/01/12 06:42:05;;;;;;;0.40;0.40;;;0.90;99.90;;;;;;4374409;32;20153;-65
2024/01/12 06:44:30;;;;;;;0.57;0.57;;;1.00;99.90;;;;;;4374098;32;20149;-65
2024/01/12 06:46:56;;;;;;;0.40;0.40;;;0.90;99.90;;;;;;4369075;32;20063;-65
2024/01/12 06:49:21;;;;;;;0.98;0.90;;;0.90;99.90;;;;;;4361118;32;20082;-65
2024/01/12 06:51:47;;;;;;;0.40;0.40;;;0.90;99.90;;;;;;4364865;32;20079;-65
2024/01/12 06:54:12;;;;;;;0.40;0.40;;;0.90;99.90;;;;;;4366547;32;20137;-66
2024/01/12 06:56:38;;;;;;;0.40;0.40;;;1.00;99.90;;;;;;4359444;32;20776;-66
2024/01/12 06:59:04;;;;;;;0.37;0.37;;;0.90;99.90;;;;;;4356795;32;20837;-65
2024/01/12 07:01:30;;;;;;;0.45;0.45;;;1.00;99.90;;;;;;4352092;32;20630;-67
2024/01/12 07:03:55;;;;;;;0.30;0.30;;;1.10;99.90;;;;;;4352148;32;20090;-65
2024/01/12 07:06:21;;;;;;;0.70;0.70;;;1.10;99.90;;;;;;4347771;32;20094;-65
2024/01/12 07:08:47;;;;;;;0.45;0.45;;;1.10;99.90;;;;;;4346808;32;20119;-66
2024/01/12 07:11:12;;;;;;;0.50;0.50;;;1.00;99.90;;;;;;4348137;32;21866;-66
2024/01/12 07:13:37;;;;;;;0.40;0.40;;;1.00;99.90;;;;;;4344108;32;20155;-66
2024/01/12 07:16:04;;;;;;;0.40;0.40;;;1.10;99.90;;;;;;4341651;32;20161;-65
2024/01/12 07:18:29;;;;;;;0.43;0.43;;;1.00;99.90;;;;;;4353505;32;20107;-66
2024/01/12 07:20:57;;;;;;;0.40;0.40;;;0.90;99.90;;;;;;4359612;32;20078;-65
2024/01/12 07:23:23;;;;;;;0.70;0.70;;;0.90;99.90;;;;;;4349028;32;20144;-67
2024/01/12 07:25:48;;;;;;;0.30;0.30;;;0.80;99.90;;;;;;4339641;32;20078;-66
2024/01/12 07:28:15;;;;;;;0.40;0.40;;;0.90;99.90;;;;;;4354651;32;20093;-67
2024/01/12 07:30:41;;;;;;;0.43;0.43;;;0.80;99.90;;;;;;4354045;32;20522;-66
2024/01/12 07:33:06;;;;;;;0.50;0.50;;;0.80;99.90;;;;;;4351335;32;20150;-66
2024/01/12 07:35:31;;;;;;;0.40;0.40;;;0.90;99.90;;;;;;4346492;32;20090;-67
2024/01/12 07:37:57;;;;;;;0.40;0.40;;;0.80;99.90;;;;;;4343151;32;20090;-66
2024/01/12 07:40:22;;;;;;;0.40;0.40;;;0.90;99.90;;;;;;4338119;32;21793;-65
2024/01/12 07:42:48;;;;;;;0.57;0.57;;;1.00;99.90;;;;;;4344157;32;20193;-66
2024/01/12 07:45:13;;;;;;;0.40;0.40;;;1.00;99.90;;;;;;4348256;32;20086;-65
2024/01/12 07:47:39;;;;;;;1.35;1.05;;;1.00;99.90;;;;;;4354726;32;21006;-66
2024/01/12 07:50:06;;;;;;;0.50;0.50;;;1.00;99.90;;;;;;4340921;32;20082;-66
2024/01/12 07:52:32;;;;;;;2.17;0.80;;;1.10;99.90;;;;;;4353698;32;20194;-67
2024/01/12 07:54:57;;;;;;;0.30;0.30;;;1.10;99.90;;;;;;4347632;32;20525;-68
2024/01/12 07:57:23;;;;;;;0.40;0.40;;;1.10;99.90;;;;;;4356618;32;25519;-67
2024/01/12 07:59:48;;;;;;;0.75;0.73;;;1.00;99.90;;;;;;4347696;32;20594;-67
2024/01/12 08:02:14;;;;;;;0.32;0.32;;;1.00;99.90;;;;;;4352750;32;21127;-66
2024/01/12 08:04:40;;;;;;;0.40;0.40;;;1.10;99.90;;;;;;4354800;32;20094;-66
2024/01/12 08:07:06;;;;;;;0.30;0.30;;;1.10;99.90;;;;;;4344590;32;20093;-67
2024/01/12 08:09:32;;;;;;;0.30;0.30;;;1.10;99.90;;;;;;4348963;32;20113;-66
2024/01/12 08:11:57;;;;;;;0.57;0.57;;;1.10;99.90;;;;;;4357073;32;20090;-67
2024/01/12 08:14:22;;;;;;;0.40;0.40;;;1.10;99.90;;;;;;4351294;32;20097;-65
2024/01/12 08:16:48;;;;;;;0.40;0.40;;;1.00;99.90;;;;;;4351636;32;21041;-67
2024/01/12 08:19:14;;;;;;;0.40;0.40;;;1.10;99.90;;;;;;4334071;32;21999;-65
2024/01/12 08:21:39;;;;;;;0.65;0.65;;;1.10;99.90;;;;;;4349653;32;20086;-65
2024/01/12 08:24:07;;;;;;;0.40;0.40;;;1.10;99.90;;;;;;4357924;32;20966;-64
2024/01/12 08:26:32;;;;;;;0.60;0.60;;;1.10;99.90;;;;;;4352829;32;20091;-64
2024/01/12 08:29:01;;;;;;;0.77;0.77;;;1.00;99.90;;;;;;4350774;32;20098;-66
2024/01/12 08:31:28;;;;;;;0.30;0.30;;;1.00;99.90;;;;;;4340988;32;20500;-65
2024/01/12 08:33:54;;;;;;;0.37;0.37;;;1.00;99.90;;;;;;4330156;32;20074;-65
2024/01/12 08:36:19;;;;;;;1.42;0.80;;;1.00;99.90;;;;;;4332903;32;20595;-64
2024/01/12 08:38:45;;;;;;;0.40;0.40;;;0.90;99.90;;;;;;4338524;32;20101;-64
2024/01/12 08:41:10;;;;;;;0.40;0.40;;;0.90;99.90;;;;;;4344409;32;20443;-65
2024/01/12 08:43:36;;;;;;;0.35;0.35;;;0.90;99.90;;;;;;4333728;32;20086;-65
2024/01/12 08:46:02;;;;;;;0.30;0.30;;;0.90;99.90;;;;;;4339295;32;20159;-64
2024/01/12 08:48:27;;;;;;;1.37;0.90;;;0.90;99.90;;;;;;4334186;32;20081;-64
2024/01/12 08:50:53;;;;;;;0.40;0.40;;;1.00;99.90;;;;;;4333585;32;20119;-64
2024/01/12 08:53:18;;;;;;;0.30;0.30;;;1.00;99.90;;;;;;4336836;32;20364;-65
2024/01/12 08:55:44;;;;;;;0.43;0.43;;;0.90;99.90;;;;;;4349717;32;20534;-66
2024/01/12 08:58:10;;;;;;;0.45;0.45;;;0.90;99.90;;;;;;4326920;32;21401;-65
2024/01/12 09:00:35;;;;;;;0.30;0.30;;;0.90;99.90;;;;;;4346921;32;20098;-65
2024/01/12 09:03:02;;;;;;;1.02;0.60;;;1.00;99.90;;;;;;4338513;32;20217;-65
2024/01/12 09:05:27;;;;;;;0.50;0.50;;;1.00;99.90;;;;;;4342516;32;20104;-66
2024/01/12 09:07:53;;;;;;;0.73;0.73;;;1.10;99.90;;;;;;4341553;32;20094;-64
2024/01/12 09:10:19;;;;;;;0.30;0.30;;;1.00;99.90;;;;;;4348950;32;20212;-65
2024/01/12 09:12:44;;;;;;;0.30;0.30;;;1.10;99.90;;;;;;4348905;32;20107;-66
2024/01/12 09:15:10;;;;;;;0.40;0.40;;;1.10;99.90;;;;;;4341592;32;20471;-65
2024/01/12 09:17:36;;;;;;;0.37;0.37;;;1.00;99.90;;;;;;4348141;32;20091;-64
2024/01/12 09:20:01;;;;;;;0.30;0.30;;;1.00;99.90;;;;;;4337326;32;20150;-65
2024/01/12 09:22:27;;;;;;;0.32;0.32;;;1.10;99.90;;;;;;4336654;32;20843;-64
2024/01/12 09:24:52;;;;;;;0.50;0.50;;;1.00;99.90;;;;;;4333272;32;20838;-65
2024/01/12 09:27:18;;;;;;;1.55;1.23;;;1.00;99.90;;;;;;4342841;32;20109;-65
2024/01/12 09:29:43;;;;;;;0.43;0.43;;;0.90;99.90;;;;;;4346745;32;20090;-65
2024/01/12 09:32:09;;;;;;;0.30;0.30;;;0.90;99.90;;;;;;4346727;32;20082;-65
2024/01/12 09:34:35;;;;;;;0.40;0.40;;;1.00;99.90;;;;;;4342330;32;20115;-64
2024/01/12 09:37:00;;;;;;;0.40;0.40;;;1.00;99.90;;;;;;4334132;32;20091;-66
2024/01/12 09:39:26;;;;;;;0.40;0.40;;;1.00;99.90;;;;;;4334778;32;20107;-63
2024/01/12 09:41:59;;;;;;;0.30;0.30;;;1.00;99.90;;;;;;4336888;32;21088;-64
2024/01/12 09:44:27;;;;;;;0.40;0.40;;;1.00;99.90;;;;;;4339413;32;20074;-65
2024/01/12 09:46:56;;;;;;;0.30;0.30;;;1.10;99.90;;;;;;4337569;32;20648;-65
2024/01/12 09:49:24;;;;;;;0.73;0.73;;;1.10;99.90;;;;;;4342661;32;20089;-64
2024/01/12 09:51:50;;;;;;;0.50;0.50;;;1.10;99.90;;;;;;4334008;32;20260;-65
2024/01/12 09:54:16;;;;;;;0.60;0.60;;;1.10;99.90;;;;;;4334498;32;20488;-65
2024/01/12 09:56:44;;;;;;;0.40;0.40;;;1.10;99.90;;;;;;4327770;32;20082;-65
2024/01/12 09:59:10;;;;;;;0.50;0.50;;;1.00;99.90;;;;;;4339319;32;21551;-65
2024/01/12 10:01:36;;;;;;;0.40;0.40;;;1.00;99.90;;;;;;4341300;32;20082;-63
2024/01/12 10:04:02;;;;;;;0.40;0.40;;;0.90;99.90;;;;;;4341061;32;20726;-64
2024/01/12 10:06:27;;;;;;;0.65;0.65;;;1.00;99.90;;;;;;4335600;32;20390;-63
2024/01/12 10:08:53;;;;;;;0.60;0.60;;;1.00;99.90;;;;;;4326042;32;20086;-65
2024/01/12 10:11:18;;;;;;;0.60;0.60;;;0.90;99.90;;;;;;4330664;32;20156;-65
2024/01/12 10:13:44;;;;;;;0.40;0.40;;;0.90;99.90;;;;;;4338455;32;20785;-64
2024/01/12 10:16:11;;;;;;;0.40;0.40;;;1.00;99.90;;;;;;4335361;32;20090;-64
2024/01/12 10:18:36;;;;;;;0.50;0.50;;;1.10;99.90;;;;;;4340468;32;20078;-65
2024/01/12 10:21:02;;;;;;;0.47;0.47;;;1.10;99.90;;;;;;4335446;32;20109;-64
2024/01/12 10:23:27;;;;;;;0.40;0.40;;;1.10;99.90;;;;;;4337556;32;20094;-65
2024/01/12 10:25:57;;;;;;;0.45;0.45;;;1.00;99.90;;;;;;4337327;32;20325;-65
2024/01/12 10:28:22;;;;;;;0.40;0.40;;;0.90;99.90;;;;;;4339740;32;20099;-65
2024/01/12 10:30:48;;;;;;;0.55;0.55;;;0.90;99.90;;;;;;4339033;32;21338;-66
2024/01/12 10:33:16;;;;;;;0.50;0.50;;;1.00;99.90;;;;;;4321405;32;20094;-66
2024/01/12 10:36:00;;;;;;;0.40;0.40;;;1.00;99.90;;;;;;4325251;32;20786;-66
2024/01/12 10:38:28;;;;;;;0.88;0.82;;;1.00;99.90;;;;;;4353218;32;20086;-66
2024/01/12 10:40:58;;;;;;;0.40;0.40;;;0.90;99.90;;;;;;4353341;32;20083;-66
2024/01/12 10:43:25;;;;;;;0.30;0.30;;;1.00;99.90;;;;;;4347868;32;20138;-65
2024/01/12 10:45:57;;;;;;;0.50;0.50;;;0.90;99.90;;;;;;4342076;32;20732;-65
2024/01/12 10:48:28;;;;;;;0.43;0.43;;;0.90;99.90;;;;;;4344507;32;20446;-66
2024/01/12 10:50:59;;;;;;;0.40;0.40;;;0.90;99.90;;;;;;4357168;32;21322;-64
2024/01/12 10:53:36;;;;;;;0.30;0.30;;;0.80;99.90;;;;;;4350821;32;20165;-65
2024/01/12 10:56:03;;;;;;;0.55;0.55;;;0.80;99.90;;;;;;4351563;32;20244;-64
2024/01/12 10:58:29;;;;;;;0.35;0.35;;;0.90;99.90;;;;;;4354085;32;20699;-65
2024/01/12 11:00:55;;;;;;;0.70;0.70;;;0.90;99.90;;;;;;4357028;32;20226;-65
2024/01/12 11:03:20;;;;;;;4.53;1.17;;;1.00;99.90;;;;;;4355937;32;20063;-65
2024/01/12 11:05:48;;;;;;;1.20;0.80;;;0.90;99.90;;;;;;4329140;32;20103;-65
2024/01/12 11:08:14;;;;;;;0.68;0.68;;;0.90;99.90;;;;;;4335937;32;20126;-65
2024/01/12 11:10:46;;;;;;;0.40;0.40;;;0.90;99.90;;;;;;4351721;32;20204;-65
2024/01/12 11:13:16;;;;;;;0.43;0.43;;;1.00;99.90;;;;;;4357664;32;20133;-65
2024/01/12 11:15:42;;;;;;;0.67;0.67;;;0.90;99.90;;;;;;4350487;32;20150;-65
2024/01/12 11:18:07;;;;;;;0.50;0.50;;;0.80;99.90;;;;;;4333783;32;20078;-65
2024/01/12 11:20:33;;;;;;;0.40;0.40;;;0.70;99.90;;;;;;4343548;32;20100;-65
2024/01/12 11:22:59;;;;;;;7.22;1.00;;;0.70;99.90;;;;;;4344530;32;20082;-66
2024/01/12 11:25:25;;;;;;;0.60;0.60;;;0.70;99.90;;;;;;4324916;32;20871;-66
2024/01/12 11:27:52;;;;;;;0.60;0.60;;;0.70;99.90;;;;;;4346635;32;20451;-66
2024/01/12 11:30:19;;;;;;;0.40;0.40;;;0.80;99.90;;;;;;4355586;32;20162;-66
2024/01/12 11:32:45;;;;;;;0.50;0.50;;;0.90;99.90;;;;;;4350225;32;20125;-65
2024/01/12 11:35:21;;;;;;;0.50;0.50;;;0.90;99.90;;;;;;4346757;32;20317;-64
2024/01/12 11:38:01;;;;;;;0.50;0.50;;;0.80;99.90;;;;;;4351081;32;20399;-65
2024/01/12 11:40:27;;;;;;;0.40;0.40;;;0.80;99.90;;;;;;4335947;32;20087;-64
2024/01/12 11:42:53;;;;;;;0.43;0.43;;;0.70;99.90;;;;;;4352803;32;20091;-65
2024/01/12 11:45:19;;;;;;;0.30;0.30;;;0.70;99.90;;;;;;4341423;32;20711;-66
2024/01/12 11:47:45;;;;;;;0.50;0.50;;;0.80;99.90;;;;;;4340973;32;20554;-65
2024/01/12 11:50:15;;;;;;;0.40;0.40;;;0.80;99.90;;;;;;4357570;32;20157;-65
2024/01/12 11:52:56;;;;;;;0.47;0.47;;;0.80;99.90;;;;;;4438013;32;106412;-64
2024/01/12 11:55:23;;;;;;;0.40;0.40;;;0.70;99.90;;;;;;4409895;32;20084;-64
2024/01/12 11:57:51;;;;;;;0.40;0.40;;;0.60;99.90;;;;;;4412897;32;20131;-64
2024/01/12 12:00:17;;;;;;;0.70;0.70;;;0.50;99.90;;;;;;4410686;32;20127;-65
2024/01/12 12:02:42;;;;;;;0.32;0.32;;;0.60;99.90;;;;;;4415365;32;20100;-64
2024/01/12 12:05:10;;;;;;;0.30;0.30;;;0.50;99.90;;;;;;4406941;32;20093;-63
2024/01/12 12:07:37;;;;;;;0.50;0.50;;;0.50;99.90;;;;;;4413702;32;20193;-65
2024/01/12 12:10:03;;;;;;;0.40;0.40;;;0.50;99.90;;;;;;4422288;32;20407;-65
2024/01/12 12:12:29;;;;;;;3.30;1.65;;;0.50;99.90;;;;;;4422136;32;20856;-65
2024/01/12 12:15:04;;;;;;;0.40;0.40;;;0.40;99.90;;;;;;4420427;32;20132;-64
2024/01/12 12:17:31;;;;;;;1.37;0.88;;;0.50;99.90;;;;;;4426197;32;20151;-66
2024/01/12 12:19:57;;;;;;;7.03;0.95;;;0.40;99.90;;;;;;4412428;32;20436;-65
2024/01/12 12:22:24;;;;;;;0.50;0.50;;;0.50;99.90;;;;;;4416115;32;20104;-66
2024/01/12 12:24:49;;;;;;;0.32;0.32;;;0.50;99.90;;;;;;4412959;32;20076;-66
2024/01/12 12:27:16;;;;;;;0.40;0.40;;;0.50;99.90;;;;;;4403992;32;20845;-66
2024/01/12 12:29:43;;;;;;;0.73;0.73;;;0.60;99.90;;;;;;4409611;32;20179;-65
2024/01/12 12:32:11;;;;;;;0.40;0.40;;;0.60;99.90;;;;;;4405605;32;20076;-66
2024/01/12 12:34:43;;;;;;;0.32;0.32;;;0.60;99.90;;;;;;4403249;32;20284;-65
2024/01/12 12:37:09;;;;;;;0.95;0.82;;;0.50;99.90;;;;;;4394518;32;20475;-66
2024/01/12 12:39:36;;;;;;;0.57;0.57;;;0.50;99.90;;;;;;4398246;32;20100;-66
2024/01/12 12:42:04;;;;;;;13.95;1.52;;;0.60;99.90;;;;;;4390313;32;20868;-66
2024/01/12 12:44:31;;;;;;;0.50;0.50;;;0.60;99.90;;;;;;4399145;32;20451;-66
2024/01/12 12:46:57;;;;;;;1.45;1.33;;;0.50;99.90;;;;;;4404078;32;20465;-65
2024/01/12 12:49:30;;;;;;;0.65;0.65;;;0.50;99.90;;;;;;4404081;32;20081;-65
2024/01/12 12:51:56;;;;;;;0.98;0.98;;;0.60;99.90;;;;;;4418903;32;20082;-64
2024/01/12 12:54:22;;;;;;;0.60;0.60;;;0.60;99.90;;;;;;4417816;32;20147;-64